Time;durP1;ratioP1;P1;durP2;ratioP2;P2;SDS_P1;SDS_P2;PMS_P1;PMS_P2;Temp;Humidity;BMP_temperature;BMP_pressure;BME280_temperature;BME280_humidity;BME280_pressure;Samples;Min_cycle;Max_cycle;Signal;HPM_P1;HPM_P2
2023/09/25 00:01:37;;;;;;;;;;;14.10;23.70;;;;;;12567564;28;20285;-34
2023/09/25 00:07:40;;;;;;;;;;;14.10;24.50;;;;;;12541424;28;19925;-34
2023/09/25 00:13:42;;;;;;;;;;;13.90;41.30;;;;;;12563423;28;19928;-35
2023/09/25 00:19:45;;;;;;;;;;;13.90;40.90;;;;;;12557008;28;19936;-34
2023/09/25 00:25:50;;;;;;;;;;;13.90;50.10;;;;;;12521080;28;19977;-34
2023/09/25 00:31:55;;;;;;;;;;;13.90;59.90;;;;;;12559208;28;20032;-35
2023/09/25 00:37:57;;;;;;;;;;;13.90;49.10;;;;;;12576402;28;19931;-35
2023/09/25 00:43:59;;;;;;;;;;;13.90;52.80;;;;;;12561288;28;19924;-35
2023/09/25 00:50:03;;;;;;;;;;;13.90;72.00;;;;;;12578534;28;19974;-35
2023/09/25 00:56:04;;;;;;;;;;;14.00;55.60;;;;;;12589161;28;19928;-34
2023/09/25 01:02:07;;;;;;;;;;;14.00;59.20;;;;;;12585114;28;19931;-34
2023/09/25 01:08:10;;;;;;;;;;;14.00;99.90;;;;;;12595037;28;19931;-34
2023/09/25 01:14:12;;;;;;;;;;;13.90;60.10;;;;;;12568808;28;20030;-34
2023/09/25 01:20:17;;;;;;;;;;;13.90;67.80;;;;;;12572901;28;19929;-34
2023/09/25 01:26:21;;;;;;;;;;;13.90;64.90;;;;;;12585417;28;19975;-35
2023/09/25 01:46:07;;;;;;;;;;;13.70;77.20;;;;;;12584679;28;20027;-37
2023/09/25 01:52:09;;;;;;;;;;;13.50;74.50;;;;;;12533393;28;20516;-36
2023/09/25 01:58:10;;;;;;;;;;;13.60;88.00;;;;;;12529442;28;19940;-36
2023/09/25 02:04:12;;;;;;;;;;;13.50;75.30;;;;;;12509927;28;19932;-36
2023/09/25 02:10:15;;;;;;;;;;;13.60;99.90;;;;;;12507968;28;19929;-37
2023/09/25 02:16:18;;;;;;;;;;;13.70;86.60;;;;;;12525869;28;19933;-36
2023/09/25 02:22:20;;;;;;;;;;;13.50;77.70;;;;;;12504898;28;20362;-36
2023/09/25 02:28:22;;;;;;;;;;;13.50;71.40;;;;;;12517939;28;20338;-36
2023/09/25 02:34:23;;;;;;;;;;;13.70;73.70;;;;;;12530569;28;19974;-35
2023/09/25 02:40:25;;;;;;;;;;;13.70;57.50;;;;;;12530681;28;20400;-37
2023/09/25 02:46:27;;;;;;;;;;;13.60;60.60;;;;;;12532154;28;19928;-35
2023/09/25 02:52:29;;;;;;;;;;;13.60;76.30;;;;;;12543169;28;20307;-36
2023/09/25 02:58:31;;;;;;;;;;;13.70;90.80;;;;;;12540184;28;20396;-35
2023/09/25 03:04:33;;;;;;;;;;;13.60;93.10;;;;;;12562551;28;19932;-35
2023/09/25 03:10:34;;;;;;;;;;;13.60;99.90;;;;;;12557918;28;19954;-35
2023/09/25 03:16:36;;;;;;;;;;;13.50;76.40;;;;;;12542075;28;19940;-35
2023/09/25 03:22:38;;;;;;;;;;;13.50;56.80;;;;;;12541594;28;19924;-35
2023/09/25 03:28:40;;;;;;;;;;;13.50;61.90;;;;;;12550159;28;19967;-35
2023/09/25 03:34:42;;;;;;;;;;;13.50;72.60;;;;;;12548108;28;19982;-36
2023/09/25 03:40:44;;;;;;;;;;;13.50;65.50;;;;;;12541455;28;20445;-35
2023/09/25 03:46:45;;;;;;;;;;;13.50;89.40;;;;;;12525375;28;19929;-36
2023/09/25 03:52:47;;;;;;;;;;;13.40;86.50;;;;;;12544640;28;19932;-35
2023/09/25 03:58:49;;;;;;;;;;;13.40;95.00;;;;;;12518650;28;19932;-35
2023/09/25 04:04:51;;;;;;;;;;;13.50;99.90;;;;;;12528078;28;20206;-36
2023/09/25 04:10:53;;;;;;;;;;;13.50;99.90;;;;;;12509272;28;19983;-35
2023/09/25 04:16:55;;;;;;;;;;;13.50;99.90;;;;;;12520781;28;19928;-35
2023/09/25 04:22:57;;;;;;;;;;;13.50;99.90;;;;;;12520906;28;20500;-38
2023/09/25 04:28:58;;;;;;;;;;;13.50;99.90;;;;;;12529910;28;19929;-35
2023/09/25 04:35:01;;;;;;;;;;;13.50;99.90;;;;;;12531474;28;20003;-35
2023/09/25 04:41:03;;;;;;;;;;;13.40;99.90;;;;;;12540786;28;19929;-35
2023/09/25 04:47:04;;;;;;;;;;;13.10;99.90;;;;;;12529198;28;19948;-35
2023/09/25 04:53:09;;;;;;;;;;;13.20;99.90;;;;;;12532453;28;20363;-35
2023/09/25 04:59:10;;;;;;;;;;;13.20;99.90;;;;;;12542127;28;19936;-35
2023/09/25 05:05:13;;;;;;;;;;;13.00;99.90;;;;;;12558111;28;19928;-35
2023/09/25 05:11:15;;;;;;;;;;;13.10;99.90;;;;;;12558757;28;19928;-34
2023/09/25 05:17:17;;;;;;;;;;;13.10;99.90;;;;;;12560510;28;20393;-34
2023/09/25 05:23:20;;;;;;;;;;;12.90;99.90;;;;;;12522005;28;20285;-35
2023/09/25 05:29:22;;;;;;;;;;;12.80;99.90;;;;;;12547563;28;19929;-35
2023/09/25 05:35:24;;;;;;;;;;;13.10;99.90;;;;;;12540351;28;19932;-35
2023/09/25 05:41:26;;;;;;;;;;;13.00;99.90;;;;;;12531096;28;20027;-36
2023/09/25 05:47:28;;;;;;;;;;;12.90;99.90;;;;;;12549612;28;20586;-35
2023/09/25 05:53:30;;;;;;;;;;;12.90;99.90;;;;;;12536234;28;20050;-36
2023/09/25 05:59:32;;;;;;;;;;;12.90;99.90;;;;;;12535274;28;19947;-35
2023/09/25 06:05:34;;;;;;;;;;;13.00;99.90;;;;;;12514586;28;20471;-37
2023/09/25 06:11:37;;;;;;;;;;;13.00;99.90;;;;;;12529763;28;20350;-35
2023/09/25 06:17:39;;;;;;;;;;;13.20;99.90;;;;;;12492097;28;19932;-35
2023/09/25 06:23:42;;;;;;;;;;;13.30;99.90;;;;;;12529115;28;19936;-36
2023/09/25 06:29:44;;;;;;;;;;;13.50;99.90;;;;;;12526213;28;19944;-35
2023/09/25 06:35:46;;;;;;;;;;;13.60;99.90;;;;;;12544644;28;19935;-36
2023/09/25 06:41:48;;;;;;;;;;;13.70;93.50;;;;;;12539895;28;20298;-35
2023/09/25 06:47:49;;;;;;;;;;;13.90;81.80;;;;;;12526528;28;20336;-36
2023/09/25 06:53:52;;;;;;;;;;;13.90;93.60;;;;;;12540234;28;20423;-36
2023/09/25 06:59:53;;;;;;;;;;;14.10;73.80;;;;;;12551727;28;20400;-36
2023/09/25 07:05:55;;;;;;;;;;;14.20;82.60;;;;;;12550873;28;19928;-36
2023/09/25 07:11:59;;;;;;;;;;;14.30;38.70;;;;;;12565512;28;20018;-36
2023/09/25 07:18:01;;;;;;;;;;;14.40;23.30;;;;;;12547112;28;19929;-36
2023/09/25 07:24:03;;;;;;;;;;;14.70;40.30;;;;;;12558757;28;19986;-36
2023/09/25 07:30:05;;;;;;;;;;;14.90;1.00;;;;;;12532734;28;20062;-36
2023/09/25 07:36:07;;;;;;;;;;;15.10;1.00;;;;;;12538301;28;19982;-36
2023/09/25 07:42:09;;;;;;;;;;;15.30;1.00;;;;;;12542261;28;19928;-36
2023/09/25 07:48:12;;;;;;;;;;;15.40;1.00;;;;;;12539262;28;19988;-37
2023/09/25 07:54:15;;;;;;;;;;;15.60;1.00;;;;;;12536997;28;19990;-37
2023/09/25 08:00:24;;;;;;;;;;;15.60;1.00;;;;;;12494332;28;19971;-36
2023/09/25 08:06:27;;;;;;;;;;;15.70;1.00;;;;;;12512648;28;19928;-38
2023/09/25 08:12:29;;;;;;;;;;;15.80;1.00;;;;;;12520684;28;20159;-36
2023/09/25 08:18:31;;;;;;;;;;;16.00;1.00;;;;;;12521743;28;19928;-36
2023/09/25 08:24:33;;;;;;;;;;;16.10;1.00;;;;;;12520845;28;19939;-36
2023/09/25 08:30:35;;;;;;;;;;;16.30;1.00;;;;;;12514337;28;19951;-36
2023/09/25 08:36:37;;;;;;;;;;;16.40;1.00;;;;;;12542590;28;20526;-35
2023/09/25 08:42:39;;;;;;;;;;;16.40;1.00;;;;;;12540634;28;19981;-36
2023/09/25 08:48:41;;;;;;;;;;;16.70;1.00;;;;;;12532871;28;19967;-36
2023/09/25 08:54:43;;;;;;;;;;;16.90;1.00;;;;;;12538773;28;20311;-36
2023/09/25 09:00:45;;;;;;;;;;;17.10;1.00;;;;;;12549774;28;19928;-36
2023/09/25 09:06:46;;;;;;;;;;;17.10;1.00;;;;;;12558491;28;20397;-36
2023/09/25 09:12:54;;;;;;;;;;;17.30;1.00;;;;;;12564151;28;19932;-36
2023/09/25 09:19:07;;;;;;;;;;;17.80;1.00;;;;;;12536687;28;19929;-36
2023/09/25 09:25:12;;;;;;;;;;;17.80;1.00;;;;;;12559184;28;19978;-36
2023/09/25 09:31:14;;;;;;;;;;;17.90;1.00;;;;;;12535986;28;20397;-37
2023/09/25 09:37:18;;;;;;;;;;;18.30;1.00;;;;;;12544909;28;19971;-36
2023/09/25 09:43:22;;;;;;;;;;;18.30;1.00;;;;;;12529933;28;19929;-36
2023/09/25 09:49:24;;;;;;;;;;;18.30;1.00;;;;;;12496394;28;19932;-36
2023/09/25 09:55:27;;;;;;;;;;;18.50;1.00;;;;;;12485758;28;20279;-35
2023/09/25 10:01:30;;;;;;;;;;;18.60;1.00;;;;;;12468435;28;19929;-36
2023/09/25 10:07:33;;;;;;;;;;;18.80;99.90;;;;;;12469271;28;20593;-36
2023/09/25 10:13:35;;;;;;;;;;;18.90;99.90;;;;;;12476255;28;19964;-39
2023/09/25 10:19:37;;;;;;;;;;;19.10;99.90;;;;;;12471597;28;19929;-37
2023/09/25 10:25:46;;;;;;;;;;;19.40;99.90;;;;;;12473141;28;20019;-37
2023/09/25 10:31:48;;;;;;;;;;;19.50;99.90;;;;;;12485406;28;20226;-36
2023/09/25 10:38:28;;;;;;;;;;;19.40;99.90;;;;;;12492041;28;19978;-36
2023/09/25 10:44:35;;;;;;;;;;;19.20;99.90;;;;;;12413120;28;19928;-36
2023/09/25 10:50:37;;;;;;;;;;;19.20;99.90;;;;;;12538966;28;19954;-37
2023/09/25 10:56:39;;;;;;;;;;;19.50;99.90;;;;;;12543171;28;20395;-37
2023/09/25 11:02:41;;;;;;;;;;;19.40;99.90;;;;;;12558545;28;20303;-37
2023/09/25 11:08:43;;;;;;;;;;;19.40;99.90;;;;;;12536122;28;19944;-36
2023/09/25 11:14:45;;;;;;;;;;;19.50;99.90;;;;;;12549936;28;19928;-36
2023/09/25 11:20:48;;;;;;;;;;;19.40;99.90;;;;;;12550748;28;19964;-38
2023/09/25 11:26:50;;;;;;;;;;;19.70;99.90;;;;;;12556570;28;20392;-36
2023/09/25 11:32:52;;;;;;;;;;;20.10;99.90;;;;;;12550936;28;19951;-36
2023/09/25 11:38:54;;;;;;;;;;;20.20;99.90;;;;;;12557003;28;19928;-37
2023/09/25 11:44:55;;;;;;;;;;;20.70;99.90;;;;;;12553535;28;19925;-37
2023/09/25 11:50:57;;;;;;;;;;;21.00;99.90;;;;;;12550793;28;19924;-36
2023/09/25 11:56:59;;;;;;;;;;;21.00;1.00;;;;;;12537254;28;19978;-37
2023/09/25 12:03:03;;;;;;;;;;;20.70;1.00;;;;;;12543830;28;19929;-36
2023/09/25 12:09:10;;;;;;;;;;;20.30;99.90;;;;;;12553582;28;19929;-36
2023/09/25 12:15:14;;;;;;;;;;;20.30;99.90;;;;;;12551006;28;19959;-37
2023/09/25 12:21:16;;;;;;;;;;;20.60;1.00;;;;;;12553429;28;19929;-36
2023/09/25 12:27:17;;;;;;;;;;;20.80;99.90;;;;;;12551749;28;20019;-36
2023/09/25 12:33:21;;;;;;;;;;;20.70;99.90;;;;;;12558570;28;19939;-37
2023/09/25 12:39:23;;;;;;;;;;;20.70;99.90;;;;;;12555003;28;19951;-36
2023/09/25 12:45:24;;;;;;;;;;;20.30;99.90;;;;;;12551938;28;19924;-36
2023/09/25 12:51:26;;;;;;;;;;;20.10;1.00;;;;;;12563100;28;19955;-36
2023/09/25 12:57:29;;;;;;;;;;;20.10;1.00;;;;;;12554666;28;19936;-36
2023/09/25 13:03:31;;;;;;;;;;;19.90;1.00;;;;;;12566141;28;20399;-36
2023/09/25 13:09:33;;;;;;;;;;;19.60;1.00;;;;;;12550846;28;19983;-36
2023/09/25 13:15:35;;;;;;;;;;;19.80;1.00;;;;;;12543602;28;19935;-36
2023/09/25 13:21:37;;;;;;;;;;;20.30;1.00;;;;;;12542449;28;20020;-36
2023/09/25 13:27:39;;;;;;;;;;;20.60;1.00;;;;;;12563279;28;19933;-37
2023/09/25 13:33:40;;;;;;;;;;;20.70;1.00;;;;;;12560849;28;19932;-36
2023/09/25 13:39:42;;;;;;;;;;;20.70;21.80;;;;;;12560871;28;20457;-37
2023/09/25 13:45:44;;;;;;;;;;;20.90;99.90;;;;;;12528270;28;20015;-37
2023/09/25 13:51:47;;;;;;;;;;;20.80;1.00;;;;;;12568804;28;19978;-37
2023/09/25 13:57:49;;;;;;;;;;;20.70;1.00;;;;;;12557223;28;19932;-36
2023/09/25 14:03:51;;;;;;;;;;;20.60;99.90;;;;;;12552854;28;19971;-36
2023/09/25 14:09:53;;;;;;;;;;;20.50;99.90;;;;;;12556341;28;20431;-36
2023/09/25 14:15:55;;;;;;;;;;;20.60;1.00;;;;;;12534813;28;19936;-37
2023/09/25 14:21:57;;;;;;;;;;;20.60;1.00;;;;;;12560831;28;19936;-36
2023/09/25 14:27:59;;;;;;;;;;;20.30;1.00;;;;;;12557803;28;19933;-36
2023/09/25 14:34:01;;;;;;;;;;;20.30;1.00;;;;;;12537577;28;19936;-37
2023/09/25 14:40:05;;;;;;;;;;;20.20;1.00;;;;;;12563539;28;19929;-37
2023/09/25 14:46:07;;;;;;;;;;;20.20;1.00;;;;;;12560718;28;20023;-36
2023/09/25 14:52:11;;;;;;;;;;;20.30;99.90;;;;;;12543807;28;19929;-36
2023/09/25 14:58:13;;;;;;;;;;;20.40;99.90;;;;;;12551443;28;19929;-36
2023/09/25 15:04:17;;;;;;;;;;;20.40;99.90;;;;;;12556616;28;19928;-36
2023/09/25 15:10:19;;;;;;;;;;;20.30;99.90;;;;;;12556696;28;20310;-36
2023/09/25 15:16:21;;;;;;;;;;;20.30;99.90;;;;;;12527702;28;20022;-36
2023/09/25 15:22:25;;;;;;;;;;;20.30;99.90;;;;;;12552771;28;19929;-37
2023/09/25 15:28:27;;;;;;;;;;;20.40;99.90;;;;;;12545946;28;20358;-37
2023/09/25 15:34:28;;;;;;;;;;;20.30;99.90;;;;;;12553018;28;20002;-36
2023/09/25 15:40:32;;;;;;;;;;;20.20;37.30;;;;;;12555954;28;19998;-36
2023/09/25 15:46:34;;;;;;;;;;;20.10;13.40;;;;;;12553342;28;20346;-36
2023/09/25 15:52:36;;;;;;;;;;;20.00;75.20;;;;;;12549711;28;19928;-37
2023/09/25 15:58:37;;;;;;;;;;;19.70;99.90;;;;;;12536990;28;19935;-37
2023/09/25 16:04:39;;;;;;;;;;;19.50;1.00;;;;;;12559348;28;20134;-36
2023/09/25 16:10:41;;;;;;;;;;;19.60;1.00;;;;;;12549255;28;19955;-37
2023/09/25 16:16:43;;;;;;;;;;;19.60;1.00;;;;;;12556837;28;20455;-37
2023/09/25 16:22:45;;;;;;;;;;;19.30;1.00;;;;;;12550110;28;19936;-36
2023/09/25 16:28:47;;;;;;;;;;;19.00;1.00;;;;;;12525730;28;19928;-36
2023/09/25 16:34:49;;;;;;;;;;;19.00;1.00;;;;;;12550585;28;20027;-36
2023/09/25 16:40:50;;;;;;;;;;;19.00;1.00;;;;;;12553975;28;20002;-36
2023/09/25 16:46:52;;;;;;;;;;;18.90;1.00;;;;;;12523083;28;20411;-37
2023/09/25 16:52:54;;;;;;;;;;;18.80;1.00;;;;;;12552496;28;19971;-36
2023/09/25 16:58:57;;;;;;;;;;;18.70;1.00;;;;;;12551739;28;20338;-36
2023/09/25 17:04:59;;;;;;;;;;;18.70;1.00;;;;;;12553505;28;20027;-36
2023/09/25 17:11:01;;;;;;;;;;;18.50;1.00;;;;;;12550419;28;19936;-38
2023/09/25 17:17:02;;;;;;;;;;;18.30;1.00;;;;;;12550994;28;19925;-36
2023/09/25 17:23:04;;;;;;;;;;;18.00;1.00;;;;;;12544271;28;19932;-36
2023/09/25 17:29:06;;;;;;;;;;;17.90;10.60;;;;;;12560290;28;19935;-36
2023/09/25 17:35:10;;;;;;;;;;;17.70;15.10;;;;;;12547115;28;19929;-36
2023/09/25 17:41:14;;;;;;;;;;;17.60;39.60;;;;;;12564464;28;20018;-38
2023/09/25 17:47:15;;;;;;;;;;;17.50;61.10;;;;;;12547273;28;19928;-36
2023/09/25 17:53:17;;;;;;;;;;;17.30;54.90;;;;;;12544200;28;20876;-36
2023/09/25 17:59:19;;;;;;;;;;;17.00;47.00;;;;;;12541056;28;20307;-36
2023/09/25 18:05:21;;;;;;;;;;;16.90;59.70;;;;;;12551962;28;19932;-36
2023/09/25 18:11:23;;;;;;;;;;;16.70;53.90;;;;;;12560660;28;19978;-36
2023/09/25 18:17:24;;;;;;;;;;;16.70;80.20;;;;;;12563737;28;20031;-36
2023/09/25 18:23:26;;;;;;;;;;;16.40;28.30;;;;;;12541917;28;19951;-36
2023/09/25 18:29:28;;;;;;;;;;;16.50;91.70;;;;;;12542353;28;20280;-35
2023/09/25 18:35:30;;;;;;;;;;;16.50;80.60;;;;;;12536943;28;20005;-36
2023/09/25 18:41:32;;;;;;;;;;;16.50;64.40;;;;;;12543403;28;19928;-36
2023/09/25 18:47:37;;;;;;;;;;;16.60;99.90;;;;;;12533495;28;19928;-35
2023/09/25 18:53:38;;;;;;;;;;;16.50;99.90;;;;;;12554761;28;19928;-35
2023/09/25 18:59:40;;;;;;;;;;;16.50;99.90;;;;;;12545295;28;20005;-36
2023/09/25 19:05:43;;;;;;;;;;;16.40;99.90;;;;;;12555727;28;19932;-36
2023/09/25 19:11:45;;;;;;;;;;;16.40;99.90;;;;;;12565092;28;19929;-37
2023/09/25 19:17:47;;;;;;;;;;;16.40;99.90;;;;;;12546828;28;19933;-35
2023/09/25 19:23:49;;;;;;;;;;;16.40;99.90;;;;;;12542259;28;19928;-35
2023/09/25 19:29:51;;;;;;;;;;;16.40;99.90;;;;;;12559026;28;19932;-35
2023/09/25 19:35:53;;;;;;;;;;;16.30;92.10;;;;;;12540676;28;19928;-36
2023/09/25 19:41:55;;;;;;;;;;;16.10;27.40;;;;;;12540596;28;19982;-35
2023/09/25 19:47:56;;;;;;;;;;;16.10;33.40;;;;;;12549029;28;19982;-36
2023/09/25 19:53:59;;;;;;;;;;;16.10;84.20;;;;;;12547057;28;19928;-37
2023/09/25 20:00:01;;;;;;;;;;;16.00;25.90;;;;;;12548090;28;19930;-36
2023/09/25 20:06:02;;;;;;;;;;;16.10;34.90;;;;;;12553115;28;20660;-35
2023/09/25 20:12:04;;;;;;;;;;;16.00;44.60;;;;;;12557668;28;19974;-36
2023/09/25 20:18:07;;;;;;;;;;;16.10;42.00;;;;;;12533865;28;19928;-37
2023/09/25 20:24:11;;;;;;;;;;;16.10;44.60;;;;;;12523062;28;20298;-36
2023/09/25 20:30:13;;;;;;;;;;;16.00;20.10;;;;;;12531080;28;20434;-35
2023/09/25 20:36:14;;;;;;;;;;;15.90;10.20;;;;;;12553270;28;19970;-36
2023/09/25 20:42:16;;;;;;;;;;;16.00;42.80;;;;;;12540216;28;19925;-38
2023/09/25 20:48:18;;;;;;;;;;;16.10;80.10;;;;;;12533558;28;19928;-35
2023/09/25 20:54:20;;;;;;;;;;;16.10;36.00;;;;;;12524989;28;20784;-36
2023/09/25 21:00:21;;;;;;;;;;;16.00;89.60;;;;;;12553290;28;20016;-36
2023/09/25 21:06:23;;;;;;;;;;;15.90;38.50;;;;;;12553937;28;20463;-35
2023/09/25 21:12:25;;;;;;;;;;;15.80;1.00;;;;;;12567009;28;19928;-35
2023/09/25 21:18:27;;;;;;;;;;;15.70;1.00;;;;;;12536186;28;19932;-35
2023/09/25 21:24:28;;;;;;;;;;;15.70;1.00;;;;;;12567530;28;20448;-37
2023/09/25 21:30:30;;;;;;;;;;;15.70;1.00;;;;;;12552089;28;20585;-36
2023/09/25 21:36:32;;;;;;;;;;;15.70;50.20;;;;;;12564380;28;19937;-36
2023/09/25 21:42:34;;;;;;;;;;;15.80;91.60;;;;;;12538470;28;19925;-36
2023/09/25 21:48:38;;;;;;;;;;;15.80;48.70;;;;;;12554181;28;19932;-36
2023/09/25 21:54:41;;;;;;;;;;;15.70;1.00;;;;;;12554548;28;19935;-35
2023/09/25 22:00:43;;;;;;;;;;;15.60;1.00;;;;;;12551322;28;19928;-35
2023/09/25 22:06:45;;;;;;;;;;;15.60;36.80;;;;;;12557743;28;20327;-36
2023/09/25 22:12:47;;;;;;;;;;;15.60;20.50;;;;;;12559205;28;19929;-37
2023/09/25 22:18:49;;;;;;;;;;;15.90;99.90;;;;;;12540556;28;19928;-36
2023/09/25 22:24:51;;;;;;;;;;;15.80;99.90;;;;;;12536668;28;20571;-36
2023/09/25 22:30:53;;;;;;;;;;;15.50;99.90;;;;;;12556519;28;20453;-35
2023/09/25 22:36:55;;;;;;;;;;;15.30;99.90;;;;;;12555138;28;19932;-35
2023/09/25 22:42:57;;;;;;;;;;;15.10;99.90;;;;;;12551751;28;19932;-36
2023/09/25 22:48:59;;;;;;;;;;;14.80;99.90;;;;;;12549762;28;19951;-35
2023/09/25 22:55:01;;;;;;;;;;;14.60;99.90;;;;;;12544590;28;19958;-36
2023/09/25 23:01:03;;;;;;;;;;;14.50;99.90;;;;;;12557043;28;20350;-35
2023/09/25 23:07:06;;;;;;;;;;;14.50;99.90;;;;;;12549605;28;20005;-35
2023/09/25 23:13:08;;;;;;;;;;;14.50;99.90;;;;;;12527171;28;20602;-35
2023/09/25 23:19:10;;;;;;;;;;;14.50;99.90;;;;;;12553921;28;19982;-35
2023/09/25 23:25:16;;;;;;;;;;;14.50;99.90;;;;;;12520977;28;20364;-35
2023/09/25 23:31:19;;;;;;;;;;;14.30;99.90;;;;;;12522409;28;19928;-35
2023/09/25 23:37:21;;;;;;;;;;;14.20;99.90;;;;;;12544032;28;20419;-35
2023/09/25 23:43:23;;;;;;;;;;;14.10;99.90;;;;;;12539803;28;19936;-35
2023/09/25 23:49:25;;;;;;;;;;;14.10;99.90;;;;;;12546840;28;20027;-35
2023/09/25 23:55:26;;;;;;;;;;;14.00;99.90;;;;;;12535484;28;19928;-36
